sensor_id;sensor_type;location;lat;lon;timestamp;temperature;humidity
728;DHT22;347;48.780;9.158;2023-02-28T00:00:49;5.10;11.10
728;DHT22;347;48.780;9.158;2023-02-28T00:03:15;5.20;11.00
728;DHT22;347;48.780;9.158;2023-02-28T00:05:41;5.20;10.90
728;DHT22;347;48.780;9.158;2023-02-28T00:08:07;5.00;11.60
728;DHT22;347;48.780;9.158;2023-02-28T00:10:33;5.00;11.40
728;DHT22;347;48.780;9.158;2023-02-28T00:13:01;5.10;11.10
728;DHT22;347;48.780;9.158;2023-02-28T00:15:28;5.20;10.90
728;DHT22;347;48.780;9.158;2023-02-28T00:17:53;5.30;11.00
728;DHT22;347;48.780;9.158;2023-02-28T00:20:19;5.10;11.20
728;DHT22;347;48.780;9.158;2023-02-28T00:22:48;5.20;11.20
728;DHT22;347;48.780;9.158;2023-02-28T00:25:16;5.20;10.90
728;DHT22;347;48.780;9.158;2023-02-28T00:27:42;5.30;10.90
728;DHT22;347;48.780;9.158;2023-02-28T00:30:11;5.30;10.90
728;DHT22;347;48.780;9.158;2023-02-28T00:32:37;5.30;11.00
728;DHT22;347;48.780;9.158;2023-02-28T00:35:04;5.20;11.60
728;DHT22;347;48.780;9.158;2023-02-28T00:37:30;5.20;11.80
728;DHT22;347;48.780;9.158;2023-02-28T00:39:56;5.20;11.30
728;DHT22;347;48.780;9.158;2023-02-28T00:42:21;5.20;11.30
728;DHT22;347;48.780;9.158;2023-02-28T00:44:47;5.20;11.10
728;DHT22;347;48.780;9.158;2023-02-28T00:47:13;5.20;11.00
728;DHT22;347;48.780;9.158;2023-02-28T00:49:38;5.20;11.60
728;DHT22;347;48.780;9.158;2023-02-28T00:52:04;5.20;11.50
728;DHT22;347;48.780;9.158;2023-02-28T00:54:30;5.20;11.50
728;DHT22;347;48.780;9.158;2023-02-28T00:56:55;5.20;11.60
728;DHT22;347;48.780;9.158;2023-02-28T00:59:21;5.20;11.90
728;DHT22;347;48.780;9.158;2023-02-28T01:01:47;5.20;11.70
728;DHT22;347;48.780;9.158;2023-02-28T01:04:13;5.10;11.90
728;DHT22;347;48.780;9.158;2023-02-28T01:06:39;5.00;12.30
728;DHT22;347;48.780;9.158;2023-02-28T01:09:07;5.10;12.20
728;DHT22;347;48.780;9.158;2023-02-28T01:11:33;5.10;12.20
728;DHT22;347;48.780;9.158;2023-02-28T01:13:59;5.10;12.50
728;DHT22;347;48.780;9.158;2023-02-28T01:16:24;5.10;12.50
728;DHT22;347;48.780;9.158;2023-02-28T01:18:50;5.10;12.60
728;DHT22;347;48.780;9.158;2023-02-28T01:21:17;5.00;12.50
728;DHT22;347;48.780;9.158;2023-02-28T01:23:44;5.10;12.50
728;DHT22;347;48.780;9.158;2023-02-28T01:26:13;4.90;12.70
728;DHT22;347;48.780;9.158;2023-02-28T01:28:39;4.90;13.10
728;DHT22;347;48.780;9.158;2023-02-28T01:31:05;4.90;12.80
728;DHT22;347;48.780;9.158;2023-02-28T01:33:32;4.90;13.10
728;DHT22;347;48.780;9.158;2023-02-28T01:36:20;4.80;13.40
728;DHT22;347;48.780;9.158;2023-02-28T01:38:45;4.80;13.30
728;DHT22;347;48.780;9.158;2023-02-28T01:41:30;4.90;13.00
728;DHT22;347;48.780;9.158;2023-02-28T01:46:29;4.90;13.10
728;DHT22;347;48.780;9.158;2023-02-28T01:49:11;5.00;13.30
728;DHT22;347;48.780;9.158;2023-02-28T01:51:48;5.00;13.60
728;DHT22;347;48.780;9.158;2023-02-28T01:54:27;4.60;14.00
728;DHT22;347;48.780;9.158;2023-02-28T01:59:35;4.80;13.90
728;DHT22;347;48.780;9.158;2023-02-28T02:02:02;4.90;13.60
728;DHT22;347;48.780;9.158;2023-02-28T02:04:34;4.90;13.40
728;DHT22;347;48.780;9.158;2023-02-28T02:07:03;5.00;13.60
728;DHT22;347;48.780;9.158;2023-02-28T02:09:30;5.10;13.70
728;DHT22;347;48.780;9.158;2023-02-28T02:11:56;5.00;13.90
728;DHT22;347;48.780;9.158;2023-02-28T02:14:45;5.00;13.80
728;DHT22;347;48.780;9.158;2023-02-28T02:25:13;4.70;14.60
728;DHT22;347;48.780;9.158;2023-02-28T02:31:12;4.60;14.70
728;DHT22;347;48.780;9.158;2023-02-28T02:36:49;4.70;14.70
728;DHT22;347;48.780;9.158;2023-02-28T02:39:31;4.70;14.90
728;DHT22;347;48.780;9.158;2023-02-28T02:42:09;4.80;14.90
728;DHT22;347;48.780;9.158;2023-02-28T02:44:46;4.80;14.80
728;DHT22;347;48.780;9.158;2023-02-28T02:47:18;4.80;14.80
728;DHT22;347;48.780;9.158;2023-02-28T02:49:49;4.80;15.10
728;DHT22;347;48.780;9.158;2023-02-28T02:52:20;4.80;14.70
728;DHT22;347;48.780;9.158;2023-02-28T02:54:48;4.80;15.00
728;DHT22;347;48.780;9.158;2023-02-28T02:57:22;4.80;15.50
728;DHT22;347;48.780;9.158;2023-02-28T02:59:48;4.70;15.30
728;DHT22;347;48.780;9.158;2023-02-28T03:02:17;4.60;16.30
728;DHT22;347;48.780;9.158;2023-02-28T03:04:46;4.60;16.00
728;DHT22;347;48.780;9.158;2023-02-28T03:07:14;4.60;16.10
728;DHT22;347;48.780;9.158;2023-02-28T03:09:39;4.60;15.80
728;DHT22;347;48.780;9.158;2023-02-28T03:12:09;4.70;15.90
728;DHT22;347;48.780;9.158;2023-02-28T03:23:23;4.70;16.00
728;DHT22;347;48.780;9.158;2023-02-28T03:26:04;4.70;16.20
728;DHT22;347;48.780;9.158;2023-02-28T03:33:44;4.60;16.30
728;DHT22;347;48.780;9.158;2023-02-28T03:36:25;4.60;16.50
728;DHT22;347;48.780;9.158;2023-02-28T03:39:02;4.50;16.70
728;DHT22;347;48.780;9.158;2023-02-28T03:41:54;4.20;17.40
728;DHT22;347;48.780;9.158;2023-02-28T03:44:39;4.30;17.20
728;DHT22;347;48.780;9.158;2023-02-28T03:47:31;4.40;17.20
728;DHT22;347;48.780;9.158;2023-02-28T03:52:38;4.30;17.70
728;DHT22;347;48.780;9.158;2023-02-28T03:55:09;4.40;17.70
728;DHT22;347;48.780;9.158;2023-02-28T04:00:24;4.50;17.40
728;DHT22;347;48.780;9.158;2023-02-28T04:02:50;4.40;17.20
728;DHT22;347;48.780;9.158;2023-02-28T04:05:21;4.40;17.70
728;DHT22;347;48.780;9.158;2023-02-28T04:07:48;4.40;17.50
728;DHT22;347;48.780;9.158;2023-02-28T04:10:15;4.40;17.70
728;DHT22;347;48.780;9.158;2023-02-28T04:12:41;4.40;18.00
728;DHT22;347;48.780;9.158;2023-02-28T04:15:07;4.30;17.80
728;DHT22;347;48.780;9.158;2023-02-28T04:17:33;4.40;17.70
728;DHT22;347;48.780;9.158;2023-02-28T04:19:58;4.30;18.00
728;DHT22;347;48.780;9.158;2023-02-28T04:22:24;4.40;17.90
728;DHT22;347;48.780;9.158;2023-02-28T04:24:52;4.20;18.30
728;DHT22;347;48.780;9.158;2023-02-28T04:27:20;4.30;17.90
728;DHT22;347;48.780;9.158;2023-02-28T04:29:46;4.40;17.70
728;DHT22;347;48.780;9.158;2023-02-28T04:32:12;4.40;17.70
728;DHT22;347;48.780;9.158;2023-02-28T04:34:38;4.40;18.10
728;DHT22;347;48.780;9.158;2023-02-28T04:37:04;4.40;17.80
728;DHT22;347;48.780;9.158;2023-02-28T04:39:30;4.40;17.70
728;DHT22;347;48.780;9.158;2023-02-28T04:41:55;4.40;18.10
728;DHT22;347;48.780;9.158;2023-02-28T04:44:22;4.50;17.80
728;DHT22;347;48.780;9.158;2023-02-28T04:46:48;4.50;18.10
728;DHT22;347;48.780;9.158;2023-02-28T04:49:14;4.60;17.50
728;DHT22;347;48.780;9.158;2023-02-28T04:51:41;4.70;17.40
728;DHT22;347;48.780;9.158;2023-02-28T04:54:07;4.60;17.70
728;DHT22;347;48.780;9.158;2023-02-28T04:56:33;4.70;17.50
728;DHT22;347;48.780;9.158;2023-02-28T04:58:58;4.80;18.10
728;DHT22;347;48.780;9.158;2023-02-28T05:01:33;4.70;17.80
728;DHT22;347;48.780;9.158;2023-02-28T05:04:01;4.80;17.60
728;DHT22;347;48.780;9.158;2023-02-28T05:06:28;4.80;17.40
728;DHT22;347;48.780;9.158;2023-02-28T05:08:55;4.80;17.60
728;DHT22;347;48.780;9.158;2023-02-28T05:11:30;4.80;17.40
728;DHT22;347;48.780;9.158;2023-02-28T05:14:04;4.90;17.20
728;DHT22;347;48.780;9.158;2023-02-28T05:16:31;4.90;17.00
728;DHT22;347;48.780;9.158;2023-02-28T05:18:56;4.50;17.60
728;DHT22;347;48.780;9.158;2023-02-28T05:21:48;4.40;18.40
728;DHT22;347;48.780;9.158;2023-02-28T05:24:14;4.50;18.10
728;DHT22;347;48.780;9.158;2023-02-28T05:26:42;4.50;17.90
728;DHT22;347;48.780;9.158;2023-02-28T05:29:08;4.50;18.00
728;DHT22;347;48.780;9.158;2023-02-28T05:31:34;4.50;18.20
728;DHT22;347;48.780;9.158;2023-02-28T05:34:00;4.40;18.20
728;DHT22;347;48.780;9.158;2023-02-28T05:36:25;4.40;18.10
728;DHT22;347;48.780;9.158;2023-02-28T05:38:52;4.30;18.30
728;DHT22;347;48.780;9.158;2023-02-28T05:41:18;4.30;18.40
728;DHT22;347;48.780;9.158;2023-02-28T05:43:45;4.40;18.40
728;DHT22;347;48.780;9.158;2023-02-28T05:46:11;4.50;18.60
728;DHT22;347;48.780;9.158;2023-02-28T05:48:39;4.50;18.30
728;DHT22;347;48.780;9.158;2023-02-28T05:51:05;4.60;18.40
728;DHT22;347;48.780;9.158;2023-02-28T05:53:32;4.50;18.40
728;DHT22;347;48.780;9.158;2023-02-28T05:55:58;4.40;18.50
728;DHT22;347;48.780;9.158;2023-02-28T05:58:24;4.40;18.40
728;DHT22;347;48.780;9.158;2023-02-28T06:00:57;4.40;18.60
728;DHT22;347;48.780;9.158;2023-02-28T06:03:23;4.40;18.70
728;DHT22;347;48.780;9.158;2023-02-28T06:05:48;4.30;18.60
728;DHT22;347;48.780;9.158;2023-02-28T06:08:15;4.30;18.80
728;DHT22;347;48.780;9.158;2023-02-28T06:10:41;4.40;18.90
728;DHT22;347;48.780;9.158;2023-02-28T06:13:07;4.40;18.70
728;DHT22;347;48.780;9.158;2023-02-28T06:15:32;4.50;18.70
728;DHT22;347;48.780;9.158;2023-02-28T06:17:58;4.30;18.70
728;DHT22;347;48.780;9.158;2023-02-28T06:20:26;4.40;18.60
728;DHT22;347;48.780;9.158;2023-02-28T06:22:58;4.30;18.70
728;DHT22;347;48.780;9.158;2023-02-28T06:25:27;4.30;19.10
728;DHT22;347;48.780;9.158;2023-02-28T06:27:54;4.40;18.80
728;DHT22;347;48.780;9.158;2023-02-28T06:30:20;4.40;19.10
728;DHT22;347;48.780;9.158;2023-02-28T06:32:50;4.30;19.60
728;DHT22;347;48.780;9.158;2023-02-28T06:35:16;4.40;19.50
728;DHT22;347;48.780;9.158;2023-02-28T06:37:41;4.40;19.10
728;DHT22;347;48.780;9.158;2023-02-28T06:40:09;4.40;18.90
728;DHT22;347;48.780;9.158;2023-02-28T06:42:35;4.50;18.70
728;DHT22;347;48.780;9.158;2023-02-28T06:45:01;4.50;18.40
728;DHT22;347;48.780;9.158;2023-02-28T06:47:30;4.40;18.60
728;DHT22;347;48.780;9.158;2023-02-28T06:49:56;4.40;18.80
728;DHT22;347;48.780;9.158;2023-02-28T06:52:21;4.20;19.20
728;DHT22;347;48.780;9.158;2023-02-28T06:54:47;4.20;19.20
728;DHT22;347;48.780;9.158;2023-02-28T06:57:28;4.30;19.00
728;DHT22;347;48.780;9.158;2023-02-28T06:59:57;4.30;18.90
728;DHT22;347;48.780;9.158;2023-02-28T07:02:23;4.30;19.00
728;DHT22;347;48.780;9.158;2023-02-28T07:04:48;4.40;18.70
728;DHT22;347;48.780;9.158;2023-02-28T07:07:14;4.40;18.80
728;DHT22;347;48.780;9.158;2023-02-28T07:09:40;4.40;18.70
728;DHT22;347;48.780;9.158;2023-02-28T07:12:05;4.40;18.70
728;DHT22;347;48.780;9.158;2023-02-28T07:14:31;4.40;18.70
728;DHT22;347;48.780;9.158;2023-02-28T07:16:57;4.50;18.60
728;DHT22;347;48.780;9.158;2023-02-28T07:19:22;4.50;18.60
728;DHT22;347;48.780;9.158;2023-02-28T07:21:48;4.50;18.60
728;DHT22;347;48.780;9.158;2023-02-28T07:24:14;4.50;18.20
728;DHT22;347;48.780;9.158;2023-02-28T07:26:41;4.60;19.90
728;DHT22;347;48.780;9.158;2023-02-28T07:29:07;4.60;18.30
728;DHT22;347;48.780;9.158;2023-02-28T07:31:32;4.60;18.20
728;DHT22;347;48.780;9.158;2023-02-28T07:33:58;4.60;18.10
728;DHT22;347;48.780;9.158;2023-02-28T07:36:24;4.60;18.70
728;DHT22;347;48.780;9.158;2023-02-28T07:38:49;4.60;18.80
728;DHT22;347;48.780;9.158;2023-02-28T07:41:18;4.60;18.30
728;DHT22;347;48.780;9.158;2023-02-28T07:43:44;4.60;18.70
728;DHT22;347;48.780;9.158;2023-02-28T07:46:12;4.60;18.40
728;DHT22;347;48.780;9.158;2023-02-28T07:48:40;4.80;18.00
728;DHT22;347;48.780;9.158;2023-02-28T07:51:06;4.80;18.30
728;DHT22;347;48.780;9.158;2023-02-28T07:53:32;4.80;18.10
728;DHT22;347;48.780;9.158;2023-02-28T07:55:59;4.80;18.00
728;DHT22;347;48.780;9.158;2023-02-28T07:58:26;4.80;17.90
728;DHT22;347;48.780;9.158;2023-02-28T08:00:52;4.60;18.20
728;DHT22;347;48.780;9.158;2023-02-28T08:03:19;4.60;18.40
728;DHT22;347;48.780;9.158;2023-02-28T08:05:44;4.60;18.00
728;DHT22;347;48.780;9.158;2023-02-28T08:08:10;4.60;18.00
728;DHT22;347;48.780;9.158;2023-02-28T08:10:36;4.70;17.90
728;DHT22;347;48.780;9.158;2023-02-28T08:13:02;4.70;18.60
728;DHT22;347;48.780;9.158;2023-02-28T08:15:27;4.70;18.20
728;DHT22;347;48.780;9.158;2023-02-28T08:17:53;4.60;18.20
728;DHT22;347;48.780;9.158;2023-02-28T08:20:21;4.60;18.10
728;DHT22;347;48.780;9.158;2023-02-28T08:22:47;4.40;18.00
728;DHT22;347;48.780;9.158;2023-02-28T08:25:13;4.40;18.00
728;DHT22;347;48.780;9.158;2023-02-28T08:27:39;4.50;17.70
728;DHT22;347;48.780;9.158;2023-02-28T08:30:05;4.30;17.80
728;DHT22;347;48.780;9.158;2023-02-28T08:32:32;4.30;18.10
728;DHT22;347;48.780;9.158;2023-02-28T08:34:58;4.20;17.80
728;DHT22;347;48.780;9.158;2023-02-28T08:37:24;4.20;18.10
728;DHT22;347;48.780;9.158;2023-02-28T08:39:50;4.30;18.30
728;DHT22;347;48.780;9.158;2023-02-28T08:42:15;4.50;18.30
728;DHT22;347;48.780;9.158;2023-02-28T08:44:41;4.60;18.20
728;DHT22;347;48.780;9.158;2023-02-28T08:47:06;4.40;18.50
728;DHT22;347;48.780;9.158;2023-02-28T08:49:32;4.40;18.10
728;DHT22;347;48.780;9.158;2023-02-28T08:51:58;4.30;18.30
728;DHT22;347;48.780;9.158;2023-02-28T08:54:24;4.40;18.10
728;DHT22;347;48.780;9.158;2023-02-28T08:56:50;4.60;17.60
728;DHT22;347;48.780;9.158;2023-02-28T08:59:16;4.60;17.20
728;DHT22;347;48.780;9.158;2023-02-28T09:01:41;4.60;17.80
728;DHT22;347;48.780;9.158;2023-02-28T09:04:09;4.30;17.80
728;DHT22;347;48.780;9.158;2023-02-28T09:06:36;4.10;18.60
728;DHT22;347;48.780;9.158;2023-02-28T09:09:02;4.20;18.30
728;DHT22;347;48.780;9.158;2023-02-28T09:11:31;4.20;17.70
728;DHT22;347;48.780;9.158;2023-02-28T09:13:57;4.20;18.70
728;DHT22;347;48.780;9.158;2023-02-28T09:16:24;4.40;18.20
728;DHT22;347;48.780;9.158;2023-02-28T09:18:50;4.40;17.90
728;DHT22;347;48.780;9.158;2023-02-28T09:21:17;4.30;17.90
728;DHT22;347;48.780;9.158;2023-02-28T09:23:44;4.10;18.50
728;DHT22;347;48.780;9.158;2023-02-28T09:26:21;4.10;18.60
728;DHT22;347;48.780;9.158;2023-02-28T09:28:48;4.10;18.20
728;DHT22;347;48.780;9.158;2023-02-28T09:31:18;4.20;18.30
728;DHT22;347;48.780;9.158;2023-02-28T09:33:46;4.30;18.60
728;DHT22;347;48.780;9.158;2023-02-28T09:36:12;4.50;18.00
728;DHT22;347;48.780;9.158;2023-02-28T09:38:38;4.40;17.90
728;DHT22;347;48.780;9.158;2023-02-28T09:41:29;4.50;17.70
728;DHT22;347;48.780;9.158;2023-02-28T09:44:00;4.50;17.70
728;DHT22;347;48.780;9.158;2023-02-28T09:46:35;4.60;17.30
728;DHT22;347;48.780;9.158;2023-02-28T09:49:07;4.60;17.70
728;DHT22;347;48.780;9.158;2023-02-28T09:54:21;4.60;17.60
728;DHT22;347;48.780;9.158;2023-02-28T09:57:05;4.70;18.30
728;DHT22;347;48.780;9.158;2023-02-28T10:05:24;4.80;18.00
728;DHT22;347;48.780;9.158;2023-02-28T10:10:45;4.90;17.00
728;DHT22;347;48.780;9.158;2023-02-28T10:16:14;5.10;16.50
728;DHT22;347;48.780;9.158;2023-02-28T10:18:52;5.30;16.80
728;DHT22;347;48.780;9.158;2023-02-28T10:21:35;5.10;16.50
728;DHT22;347;48.780;9.158;2023-02-28T10:24:47;5.00;16.70
728;DHT22;347;48.780;9.158;2023-02-28T10:27:14;5.00;16.60
728;DHT22;347;48.780;9.158;2023-02-28T10:29:43;5.00;16.80
728;DHT22;347;48.780;9.158;2023-02-28T10:32:11;4.90;17.10
728;DHT22;347;48.780;9.158;2023-02-28T10:34:38;4.80;17.50
728;DHT22;347;48.780;9.158;2023-02-28T10:37:04;4.90;18.80
728;DHT22;347;48.780;9.158;2023-02-28T10:39:38;4.90;17.50
728;DHT22;347;48.780;9.158;2023-02-28T10:42:05;5.00;17.30
728;DHT22;347;48.780;9.158;2023-02-28T10:44:43;5.20;17.10
728;DHT22;347;48.780;9.158;2023-02-28T10:47:15;5.30;17.70
728;DHT22;347;48.780;9.158;2023-02-28T10:49:47;5.50;16.70
728;DHT22;347;48.780;9.158;2023-02-28T10:52:14;5.40;16.30
728;DHT22;347;48.780;9.158;2023-02-28T10:55:16;5.40;16.60
728;DHT22;347;48.780;9.158;2023-02-28T10:57:41;5.30;15.90
728;DHT22;347;48.780;9.158;2023-02-28T11:00:24;5.20;16.50
728;DHT22;347;48.780;9.158;2023-02-28T11:02:51;5.20;16.30
728;DHT22;347;48.780;9.158;2023-02-28T11:07:56;5.30;16.40
728;DHT22;347;48.780;9.158;2023-02-28T11:10:28;5.40;16.00
728;DHT22;347;48.780;9.158;2023-02-28T11:12:56;5.40;16.20
728;DHT22;347;48.780;9.158;2023-02-28T11:15:25;5.30;16.80
728;DHT22;347;48.780;9.158;2023-02-28T11:20:53;5.70;15.50
728;DHT22;347;48.780;9.158;2023-02-28T11:23:20;5.80;15.70
728;DHT22;347;48.780;9.158;2023-02-28T11:25:51;5.60;15.80
728;DHT22;347;48.780;9.158;2023-02-28T11:28:29;5.50;15.90
728;DHT22;347;48.780;9.158;2023-02-28T11:33:48;5.60;15.90
728;DHT22;347;48.780;9.158;2023-02-28T11:36:30;5.60;15.50
728;DHT22;347;48.780;9.158;2023-02-28T11:39:04;5.70;16.30
728;DHT22;347;48.780;9.158;2023-02-28T11:52:45;5.60;15.80
728;DHT22;347;48.780;9.158;2023-02-28T11:55:21;5.70;15.70
728;DHT22;347;48.780;9.158;2023-02-28T12:01:01;5.60;15.90
728;DHT22;347;48.780;9.158;2023-02-28T12:03:39;5.60;15.80
728;DHT22;347;48.780;9.158;2023-02-28T12:27:43;6.20;14.90
728;DHT22;347;48.780;9.158;2023-02-28T12:33:24;6.40;14.60
728;DHT22;347;48.780;9.158;2023-02-28T12:35:49;6.50;14.90
728;DHT22;347;48.780;9.158;2023-02-28T12:38:24;6.60;14.60
728;DHT22;347;48.780;9.158;2023-02-28T12:40:54;6.50;15.00
728;DHT22;347;48.780;9.158;2023-02-28T12:43:26;6.50;14.50
728;DHT22;347;48.780;9.158;2023-02-28T12:45:56;6.50;14.50
728;DHT22;347;48.780;9.158;2023-02-28T12:48:37;6.50;14.10
728;DHT22;347;48.780;9.158;2023-02-28T12:51:06;6.40;16.20
728;DHT22;347;48.780;9.158;2023-02-28T12:53:48;6.50;15.20
728;DHT22;347;48.780;9.158;2023-02-28T12:59:07;6.70;14.30
728;DHT22;347;48.780;9.158;2023-02-28T13:01:40;6.80;15.10
728;DHT22;347;48.780;9.158;2023-02-28T13:09:27;7.00;14.10
728;DHT22;347;48.780;9.158;2023-02-28T13:11:56;7.20;13.90
728;DHT22;347;48.780;9.158;2023-02-28T13:14:27;7.10;13.80
728;DHT22;347;48.780;9.158;2023-02-28T13:19:22;7.30;13.90
728;DHT22;347;48.780;9.158;2023-02-28T13:21:50;7.40;13.50
728;DHT22;347;48.780;9.158;2023-02-28T13:24:42;7.30;13.10
728;DHT22;347;48.780;9.158;2023-02-28T13:29:40;7.50;13.20
728;DHT22;347;48.780;9.158;2023-02-28T13:39:53;7.80;12.20
728;DHT22;347;48.780;9.158;2023-02-28T13:42:46;7.90;11.90
728;DHT22;347;48.780;9.158;2023-02-28T13:47:49;7.60;12.80
728;DHT22;347;48.780;9.158;2023-02-28T14:01:59;7.40;12.80
728;DHT22;347;48.780;9.158;2023-02-28T14:07:26;7.60;12.20
728;DHT22;347;48.780;9.158;2023-02-28T14:13:42;7.70;12.20
728;DHT22;347;48.780;9.158;2023-02-28T14:16:14;7.70;12.60
728;DHT22;347;48.780;9.158;2023-02-28T14:18:47;7.80;12.30
728;DHT22;347;48.780;9.158;2023-02-28T14:21:36;7.80;12.40
728;DHT22;347;48.780;9.158;2023-02-28T14:30:07;7.80;13.10
728;DHT22;347;48.780;9.158;2023-02-28T14:32:58;7.80;12.10
728;DHT22;347;48.780;9.158;2023-02-28T14:37:52;7.90;12.30
728;DHT22;347;48.780;9.158;2023-02-28T14:40:33;8.00;12.20
728;DHT22;347;48.780;9.158;2023-02-28T14:43:05;8.10;11.80
728;DHT22;347;48.780;9.158;2023-02-28T14:45:33;8.00;12.10
728;DHT22;347;48.780;9.158;2023-02-28T14:48:01;7.80;11.90
728;DHT22;347;48.780;9.158;2023-02-28T14:50:31;7.90;11.70
728;DHT22;347;48.780;9.158;2023-02-28T14:52:58;8.00;12.30
728;DHT22;347;48.780;9.158;2023-02-28T14:55:45;7.90;12.40
728;DHT22;347;48.780;9.158;2023-02-28T14:58:27;8.00;12.20
728;DHT22;347;48.780;9.158;2023-02-28T15:00:55;8.10;11.80
728;DHT22;347;48.780;9.158;2023-02-28T15:03:31;8.10;12.00
728;DHT22;347;48.780;9.158;2023-02-28T15:06:03;8.20;12.20
728;DHT22;347;48.780;9.158;2023-02-28T15:08:29;8.10;12.00
728;DHT22;347;48.780;9.158;2023-02-28T15:11:03;8.00;11.90
728;DHT22;347;48.780;9.158;2023-02-28T15:13:44;8.10;12.30
728;DHT22;347;48.780;9.158;2023-02-28T15:16:21;8.10;11.90
728;DHT22;347;48.780;9.158;2023-02-28T15:19:04;8.20;13.20
728;DHT22;347;48.780;9.158;2023-02-28T15:21:33;8.20;11.80
728;DHT22;347;48.780;9.158;2023-02-28T15:26:34;8.10;12.40
728;DHT22;347;48.780;9.158;2023-02-28T15:29:06;8.20;11.80
728;DHT22;347;48.780;9.158;2023-02-28T15:31:34;8.20;12.00
728;DHT22;347;48.780;9.158;2023-02-28T15:34:06;8.20;12.10
728;DHT22;347;48.780;9.158;2023-02-28T15:36:34;8.10;12.00
728;DHT22;347;48.780;9.158;2023-02-28T15:39:16;8.10;12.30
728;DHT22;347;48.780;9.158;2023-02-28T15:41:43;8.00;12.40
728;DHT22;347;48.780;9.158;2023-02-28T15:49:24;8.10;12.40
728;DHT22;347;48.780;9.158;2023-02-28T15:51:51;8.10;12.30
728;DHT22;347;48.780;9.158;2023-02-28T15:54:38;8.20;12.10
728;DHT22;347;48.780;9.158;2023-02-28T15:57:10;8.30;12.10
728;DHT22;347;48.780;9.158;2023-02-28T15:59:38;8.20;12.20
728;DHT22;347;48.780;9.158;2023-02-28T16:02:17;8.10;12.30
728;DHT22;347;48.780;9.158;2023-02-28T16:07:37;8.00;12.80
728;DHT22;347;48.780;9.158;2023-02-28T16:10:03;8.10;12.60
728;DHT22;347;48.780;9.158;2023-02-28T16:12:31;8.10;12.70
728;DHT22;347;48.780;9.158;2023-02-28T16:14:58;8.10;12.40
728;DHT22;347;48.780;9.158;2023-02-28T16:17:26;8.10;12.60
728;DHT22;347;48.780;9.158;2023-02-28T16:19:54;7.90;12.70
728;DHT22;347;48.780;9.158;2023-02-28T16:22:20;7.90;12.80
728;DHT22;347;48.780;9.158;2023-02-28T16:24:46;7.90;12.70
728;DHT22;347;48.780;9.158;2023-02-28T16:29:45;7.80;12.70
728;DHT22;347;48.780;9.158;2023-02-28T16:32:14;7.90;13.00
728;DHT22;347;48.780;9.158;2023-02-28T16:34:42;7.70;13.20
728;DHT22;347;48.780;9.158;2023-02-28T16:37:16;7.80;13.10
728;DHT22;347;48.780;9.158;2023-02-28T16:39:44;7.80;13.40
728;DHT22;347;48.780;9.158;2023-02-28T16:42:22;7.90;12.90
728;DHT22;347;48.780;9.158;2023-02-28T16:44:48;8.10;12.80
728;DHT22;347;48.780;9.158;2023-02-28T16:47:14;8.00;12.80
728;DHT22;347;48.780;9.158;2023-02-28T16:49:40;8.20;12.70
728;DHT22;347;48.780;9.158;2023-02-28T16:52:08;8.20;12.40
728;DHT22;347;48.780;9.158;2023-02-28T16:54:34;8.20;12.20
728;DHT22;347;48.780;9.158;2023-02-28T16:57:00;8.20;12.20
728;DHT22;347;48.780;9.158;2023-02-28T16:59:26;8.30;12.10
728;DHT22;347;48.780;9.158;2023-02-28T17:01:54;8.30;11.90
728;DHT22;347;48.780;9.158;2023-02-28T17:04:20;8.30;12.10
728;DHT22;347;48.780;9.158;2023-02-28T17:06:45;8.20;11.90
728;DHT22;347;48.780;9.158;2023-02-28T17:09:18;8.20;12.00
728;DHT22;347;48.780;9.158;2023-02-28T17:11:44;8.20;12.00
728;DHT22;347;48.780;9.158;2023-02-28T17:14:10;8.30;11.90
728;DHT22;347;48.780;9.158;2023-02-28T17:16:37;8.30;12.20
728;DHT22;347;48.780;9.158;2023-02-28T17:19:06;8.20;12.10
728;DHT22;347;48.780;9.158;2023-02-28T17:21:32;8.10;13.40
728;DHT22;347;48.780;9.158;2023-02-28T17:23:58;8.20;12.50
728;DHT22;347;48.780;9.158;2023-02-28T17:26:24;8.20;12.40
728;DHT22;347;48.780;9.158;2023-02-28T17:28:51;8.20;12.60
728;DHT22;347;48.780;9.158;2023-02-28T17:31:18;8.20;12.40
728;DHT22;347;48.780;9.158;2023-02-28T17:33:44;8.10;12.40
728;DHT22;347;48.780;9.158;2023-02-28T17:36:15;8.20;12.20
728;DHT22;347;48.780;9.158;2023-02-28T17:38:41;8.20;12.30
728;DHT22;347;48.780;9.158;2023-02-28T17:41:10;8.20;12.40
728;DHT22;347;48.780;9.158;2023-02-28T17:43:35;8.20;12.30
728;DHT22;347;48.780;9.158;2023-02-28T17:46:01;8.20;12.40
728;DHT22;347;48.780;9.158;2023-02-28T17:48:27;8.20;12.30
728;DHT22;347;48.780;9.158;2023-02-28T17:50:53;8.20;12.50
728;DHT22;347;48.780;9.158;2023-02-28T17:53:19;8.20;12.50
728;DHT22;347;48.780;9.158;2023-02-28T17:55:51;8.20;12.50
728;DHT22;347;48.780;9.158;2023-02-28T17:58:17;8.20;12.70
728;DHT22;347;48.780;9.158;2023-02-28T18:00:44;8.10;12.90
728;DHT22;347;48.780;9.158;2023-02-28T18:03:10;8.10;12.90
728;DHT22;347;48.780;9.158;2023-02-28T18:05:36;8.10;13.00
728;DHT22;347;48.780;9.158;2023-02-28T18:08:02;8.10;13.00
728;DHT22;347;48.780;9.158;2023-02-28T18:10:28;8.00;12.90
728;DHT22;347;48.780;9.158;2023-02-28T18:12:54;8.00;12.90
728;DHT22;347;48.780;9.158;2023-02-28T18:15:21;8.00;13.00
728;DHT22;347;48.780;9.158;2023-02-28T18:17:48;8.00;13.80
728;DHT22;347;48.780;9.158;2023-02-28T18:20:13;7.80;13.20
728;DHT22;347;48.780;9.158;2023-02-28T18:22:40;7.80;13.40
728;DHT22;347;48.780;9.158;2023-02-28T18:25:07;7.80;13.60
728;DHT22;347;48.780;9.158;2023-02-28T18:27:35;7.80;13.60
728;DHT22;347;48.780;9.158;2023-02-28T18:30:02;7.80;13.40
728;DHT22;347;48.780;9.158;2023-02-28T18:32:28;7.70;13.60
728;DHT22;347;48.780;9.158;2023-02-28T18:34:54;7.70;13.30
728;DHT22;347;48.780;9.158;2023-02-28T18:37:20;7.60;14.00
728;DHT22;347;48.780;9.158;2023-02-28T18:39:46;7.70;13.90
728;DHT22;347;48.780;9.158;2023-02-28T18:42:11;7.70;13.80
728;DHT22;347;48.780;9.158;2023-02-28T18:44:37;7.70;13.80
728;DHT22;347;48.780;9.158;2023-02-28T18:47:03;7.80;13.50
728;DHT22;347;48.780;9.158;2023-02-28T18:49:30;7.80;13.70
728;DHT22;347;48.780;9.158;2023-02-28T18:51:58;7.80;14.30
728;DHT22;347;48.780;9.158;2023-02-28T18:54:24;7.80;14.20
728;DHT22;347;48.780;9.158;2023-02-28T18:56:50;7.90;14.30
728;DHT22;347;48.780;9.158;2023-02-28T18:59:15;8.00;14.40
728;DHT22;347;48.780;9.158;2023-02-28T19:01:41;7.60;14.20
728;DHT22;347;48.780;9.158;2023-02-28T19:04:11;7.60;14.10
728;DHT22;347;48.780;9.158;2023-02-28T19:06:37;7.70;14.20
728;DHT22;347;48.780;9.158;2023-02-28T19:09:04;7.70;13.70
728;DHT22;347;48.780;9.158;2023-02-28T19:11:30;7.70;13.70
728;DHT22;347;48.780;9.158;2023-02-28T19:13:56;7.60;13.80
728;DHT22;347;48.780;9.158;2023-02-28T19:16:23;7.60;14.20
728;DHT22;347;48.780;9.158;2023-02-28T19:18:49;7.50;14.00
728;DHT22;347;48.780;9.158;2023-02-28T19:21:16;7.50;14.10
728;DHT22;347;48.780;9.158;2023-02-28T19:23:42;7.50;14.10
728;DHT22;347;48.780;9.158;2023-02-28T19:26:13;7.50;14.10
728;DHT22;347;48.780;9.158;2023-02-28T19:28:39;7.50;14.00
728;DHT22;347;48.780;9.158;2023-02-28T19:31:11;7.60;14.10
728;DHT22;347;48.780;9.158;2023-02-28T19:33:38;7.60;13.90
728;DHT22;347;48.780;9.158;2023-02-28T19:36:03;7.50;14.10
728;DHT22;347;48.780;9.158;2023-02-28T19:38:29;7.50;14.00
728;DHT22;347;48.780;9.158;2023-02-28T19:41:02;7.50;13.90
728;DHT22;347;48.780;9.158;2023-02-28T19:43:29;7.50;13.90
728;DHT22;347;48.780;9.158;2023-02-28T19:45:55;7.50;13.70
728;DHT22;347;48.780;9.158;2023-02-28T19:48:20;7.50;13.70